createdAt,value
2022-09-10T00:00:54.473Z,18.68
2022-09-10T00:01:51.067Z,18.69
2022-09-10T00:02:47.706Z,18.66
2022-09-10T00:03:44.567Z,18.53
2022-09-10T00:04:41.165Z,18.61
2022-09-10T00:05:42.787Z,18.43
2022-09-10T00:06:39.699Z,18.55
2022-09-10T00:07:36.313Z,18.46
2022-09-10T00:08:34.407Z,18.47
2022-09-10T00:09:31.028Z,18.40
2022-09-10T00:10:27.625Z,18.40
2022-09-10T00:11:32.013Z,18.38
2022-09-10T00:12:28.727Z,18.45
2022-09-10T00:13:25.294Z,18.53
2022-09-10T00:14:23.859Z,18.67
2022-09-10T00:15:20.540Z,18.46
2022-09-10T00:16:22.175Z,18.55
2022-09-10T00:17:19.057Z,18.60
2022-09-10T00:18:18.033Z,18.71
2022-09-10T00:19:15.488Z,18.73
2022-09-10T00:20:12.277Z,18.71
2022-09-10T00:21:12.780Z,18.66
2022-09-10T00:22:10.492Z,18.88
2022-09-10T00:23:07.150Z,18.78
2022-09-10T00:24:05.241Z,19.21
2022-09-10T00:25:06.228Z,19.45
2022-09-10T00:26:22.546Z,19.55
2022-09-10T00:27:19.273Z,19.50
2022-09-10T00:28:16.319Z,19.31
2022-09-10T00:29:15.890Z,19.10
2022-09-10T00:30:12.993Z,18.70
2022-09-10T00:31:10.583Z,18.65
2022-09-10T00:32:07.198Z,18.67
2022-09-10T00:33:03.825Z,18.60
2022-09-10T00:34:02.110Z,18.80
2022-09-10T00:35:01.293Z,18.70
2022-09-10T00:35:57.901Z,18.68
2022-09-10T00:36:54.585Z,18.61
2022-09-10T00:37:51.435Z,18.52
2022-09-10T00:38:49.129Z,18.47
2022-09-10T00:39:45.754Z,18.52
2022-09-10T00:40:42.331Z,18.58
2022-09-10T00:41:40.777Z,18.63
2022-09-10T00:42:37.338Z,18.68
2022-09-10T00:43:58.634Z,18.70
2022-09-10T00:45:01.300Z,18.66
2022-09-10T00:45:58.103Z,18.60
2022-09-10T00:46:56.272Z,18.57
2022-09-10T00:47:56.393Z,18.50
2022-09-10T00:48:56.815Z,18.49
2022-09-10T00:49:58.787Z,18.29
2022-09-10T00:50:56.202Z,18.52
2022-09-10T00:51:54.311Z,18.47
2022-09-10T00:52:53.476Z,18.44
2022-09-10T00:53:51.005Z,18.54
2022-09-10T00:54:48.354Z,18.54
2022-09-10T00:55:50.460Z,18.54
2022-09-10T00:56:48.079Z,18.44
2022-09-10T00:57:47.684Z,18.44
2022-09-10T00:58:46.220Z,18.33
2022-09-10T00:59:48.620Z,18.36
2022-09-10T01:00:45.896Z,18.38
2022-09-10T01:01:43.258Z,18.39
2022-09-10T01:02:40.163Z,18.32
2022-09-10T01:03:38.714Z,18.31
2022-09-10T01:04:35.882Z,18.23
2022-09-10T01:05:34.446Z,18.28
2022-09-10T01:06:31.487Z,18.26
2022-09-10T01:07:30.281Z,18.28
2022-09-10T01:08:27.528Z,18.21
2022-09-10T01:09:25.377Z,18.22
2022-09-10T01:10:29.605Z,18.36
2022-09-10T01:11:49.177Z,18.45
2022-09-10T01:13:30.141Z,18.54
2022-09-10T01:14:38.800Z,18.71
2022-09-10T01:16:03.133Z,18.76
2022-09-10T01:17:33.708Z,18.83
2022-09-10T01:18:45.060Z,18.78
2022-09-10T01:19:45.933Z,19.00
2022-09-10T01:20:56.632Z,19.17
2022-09-10T01:22:21.962Z,19.39
2022-09-10T01:23:33.782Z,19.44
2022-09-10T01:24:51.364Z,19.44
2022-09-10T01:26:20.890Z,19.42
2022-09-10T01:27:42.621Z,19.55
2022-09-10T01:29:02.177Z,19.40
2022-09-10T01:30:03.540Z,19.39
2022-09-10T01:31:10.789Z,19.34
2022-09-10T01:32:21.145Z,19.53
2022-09-10T01:33:34.164Z,19.36
2022-09-10T01:34:47.354Z,19.19
2022-09-10T01:35:52.956Z,18.93
2022-09-10T01:36:54.779Z,18.76
2022-09-10T01:37:59.323Z,18.59
2022-09-10T01:38:56.150Z,18.65
2022-09-10T01:39:53.712Z,18.52
2022-09-10T01:40:52.788Z,18.53
2022-09-10T01:41:50.807Z,18.57
2022-09-10T01:42:49.760Z,18.64
2022-09-10T01:43:46.371Z,18.60
2022-09-10T01:44:51.456Z,18.69
2022-09-10T01:45:54.825Z,18.68
2022-09-10T01:47:04.631Z,18.68
2022-09-10T01:48:24.132Z,18.67
2022-09-10T01:49:36.833Z,18.68
2022-09-10T01:50:57.773Z,18.75
2022-09-10T01:52:00.232Z,18.73
2022-09-10T01:53:10.230Z,18.84
2022-09-10T01:54:39.836Z,18.66
2022-09-10T01:55:42.390Z,18.32
2022-09-10T01:57:14.273Z,18.35
2022-09-10T01:58:13.613Z,18.29
2022-09-10T01:59:23.989Z,18.26
2022-09-10T02:00:24.232Z,18.21
2022-09-10T02:01:27.986Z,18.25
2022-09-10T02:02:51.177Z,18.30
2022-09-10T02:03:52.169Z,18.35
2022-09-10T02:04:51.626Z,18.40
2022-09-10T02:05:52.392Z,18.41
2022-09-10T02:06:51.555Z,18.38
2022-09-10T02:07:52.951Z,18.44
2022-09-10T02:08:53.537Z,18.35
2022-09-10T02:09:52.255Z,18.16
2022-09-10T02:11:06.458Z,18.20
2022-09-10T02:12:03.349Z,18.22
2022-09-10T02:12:59.967Z,18.23
2022-09-10T02:13:58.364Z,18.17
2022-09-10T02:14:57.534Z,18.15
2022-09-10T02:15:54.367Z,18.00
2022-09-10T02:16:55.189Z,18.21
2022-09-10T02:17:53.691Z,18.34
2022-09-10T02:18:50.576Z,18.28
2022-09-10T02:19:51.428Z,18.21
2022-09-10T02:20:50.735Z,18.20
2022-09-10T02:21:47.388Z,18.36
2022-09-10T02:22:50.055Z,18.64
2022-09-10T02:23:50.886Z,18.88
2022-09-10T02:24:47.460Z,18.96
2022-09-10T02:25:44.707Z,18.67
2022-09-10T02:26:44.350Z,18.49
2022-09-10T02:27:43.585Z,18.39
2022-09-10T02:28:40.998Z,18.26
2022-09-10T02:29:39.119Z,17.82
2022-09-10T02:30:35.743Z,17.51
2022-09-10T02:31:32.733Z,17.21
2022-09-10T02:32:29.375Z,17.10
2022-09-10T02:33:26.040Z,17.03
2022-09-10T02:34:23.133Z,16.99
2022-09-10T02:35:20.831Z,17.05
2022-09-10T02:36:17.641Z,16.88
2022-09-10T02:37:16.055Z,16.73
2022-09-10T02:38:12.623Z,16.70
2022-09-10T02:39:09.237Z,16.72
2022-09-10T02:40:06.572Z,16.92
2022-09-10T02:41:03.189Z,17.03
2022-09-10T02:42:00.098Z,17.12
2022-09-10T02:42:56.658Z,17.26
2022-09-10T02:43:53.311Z,17.34
2022-09-10T02:44:49.906Z,17.31
2022-09-10T02:45:46.545Z,17.30
2022-09-10T02:46:44.272Z,17.11
2022-09-10T02:47:41.086Z,17.25
2022-09-10T02:48:38.761Z,17.22
2022-09-10T02:49:35.392Z,17.41
2022-09-10T02:50:33.688Z,17.43
2022-09-10T02:51:30.548Z,17.44
2022-09-10T02:52:27.144Z,17.53
2022-09-10T02:53:23.822Z,17.58
2022-09-10T02:54:20.426Z,17.48
2022-09-10T02:55:18.076Z,17.58
2022-09-10T02:56:15.381Z,17.52
2022-09-10T02:57:12.314Z,17.62
2022-09-10T02:58:08.919Z,17.61
2022-09-10T02:59:06.387Z,17.66
2022-09-10T03:00:04.344Z,17.68
2022-09-10T03:01:15.956Z,17.51
2022-09-10T03:02:12.895Z,17.54
2022-09-10T03:03:09.512Z,17.60
2022-09-10T03:04:06.234Z,17.61
2022-09-10T03:05:07.212Z,17.66
2022-09-10T03:06:04.553Z,17.54
2022-09-10T03:07:01.480Z,17.68
2022-09-10T03:07:58.372Z,17.63
2022-09-10T03:08:58.067Z,17.56
2022-09-10T03:09:54.615Z,17.72
2022-09-10T03:10:51.178Z,17.69
2022-09-10T03:11:48.037Z,17.81
2022-09-10T03:12:45.603Z,17.79
2022-09-10T03:13:44.079Z,17.61
2022-09-10T03:14:40.631Z,17.70
2022-09-10T03:15:38.277Z,17.51
2022-09-10T03:16:35.355Z,17.84
2022-09-10T03:17:32.872Z,17.78
2022-09-10T03:18:31.745Z,17.83
2022-09-10T03:19:28.752Z,17.75
2022-09-10T03:20:25.955Z,17.60
2022-09-10T03:21:25.245Z,17.57
2022-09-10T03:22:21.984Z,17.48
2022-09-10T03:23:19.206Z,17.63
2022-09-10T03:24:16.033Z,17.59
2022-09-10T03:25:12.635Z,17.45
2022-09-10T03:26:10.275Z,17.31
2022-09-10T03:27:06.918Z,17.33
2022-09-10T03:28:03.814Z,17.49
2022-09-10T03:29:00.404Z,17.61
2022-09-10T03:29:57.054Z,17.54
2022-09-10T03:30:53.613Z,17.47
2022-09-10T03:31:51.764Z,17.34
2022-09-10T03:32:49.216Z,17.23
2022-09-10T03:33:46.348Z,17.17
2022-09-10T03:34:44.285Z,17.25
2022-09-10T03:35:40.832Z,17.18
2022-09-10T03:36:37.383Z,17.06
2022-09-10T03:37:34.040Z,16.96
2022-09-10T03:38:30.941Z,16.92
2022-09-10T03:39:27.549Z,16.87
2022-09-10T03:40:24.180Z,16.87
2022-09-10T03:41:20.791Z,16.87
2022-09-10T03:42:17.526Z,16.83
2022-09-10T03:43:14.289Z,16.94
2022-09-10T03:44:11.556Z,17.10
2022-09-10T03:45:10.100Z,17.11
2022-09-10T03:46:07.101Z,16.97
2022-09-10T03:47:04.985Z,17.16
2022-09-10T03:48:03.225Z,17.17
2022-09-10T03:49:02.390Z,17.27
2022-09-10T03:49:59.795Z,17.45
2022-09-10T03:50:56.687Z,17.52
2022-09-10T03:51:53.614Z,17.61
2022-09-10T03:52:50.197Z,17.64
2022-09-10T03:53:46.805Z,17.67
2022-09-10T03:54:45.143Z,17.72
2022-09-10T03:55:49.086Z,17.79
2022-09-10T03:56:46.122Z,17.66
2022-09-10T03:57:43.302Z,17.83
2022-09-10T03:58:40.083Z,18.08
2022-09-10T03:59:41.239Z,17.84
2022-09-10T04:00:37.892Z,17.82
2022-09-10T04:01:34.587Z,17.63
2022-09-10T04:02:31.769Z,17.66
2022-09-10T04:03:29.348Z,17.54
2022-09-10T04:04:26.063Z,17.54
2022-09-10T04:05:23.353Z,17.43
2022-09-10T04:06:19.945Z,17.30
2022-09-10T04:07:16.509Z,17.28
2022-09-10T04:08:14.201Z,17.36
2022-09-10T04:09:11.280Z,17.27
2022-09-10T04:10:08.244Z,17.13
2022-09-10T04:11:05.572Z,17.06
2022-09-10T04:12:03.762Z,17.04
2022-09-10T04:13:00.308Z,16.97
2022-09-10T04:13:57.595Z,16.90
2022-09-10T04:14:54.397Z,16.94
2022-09-10T04:15:50.983Z,16.93
2022-09-10T04:16:47.735Z,17.05
2022-09-10T04:17:46.520Z,17.18
2022-09-10T04:18:43.162Z,17.13
2022-09-10T04:19:40.827Z,17.19
2022-09-10T04:20:38.240Z,17.07
2022-09-10T04:21:34.902Z,17.38
2022-09-10T04:22:31.512Z,17.69
2022-09-10T04:23:29.610Z,17.91
2022-09-10T04:24:26.244Z,18.14
2022-09-10T04:25:23.194Z,18.20
2022-09-10T04:26:20.512Z,18.22
2022-09-10T04:27:17.483Z,18.11
2022-09-10T04:28:14.038Z,18.25
2022-09-10T04:29:10.673Z,18.27
2022-09-10T04:30:11.169Z,17.93
2022-09-10T04:31:07.795Z,17.67
2022-09-10T04:32:04.515Z,17.46
2022-09-10T04:33:01.098Z,17.15
2022-09-10T04:34:02.001Z,17.15
2022-09-10T04:34:59.311Z,17.20
2022-09-10T04:36:00.501Z,17.31
2022-09-10T04:36:57.104Z,17.46
2022-09-10T04:37:53.671Z,17.74
2022-09-10T04:38:50.274Z,17.88
2022-09-10T04:39:46.919Z,18.05
2022-09-10T04:40:44.285Z,18.27
2022-09-10T04:41:40.852Z,18.37
2022-09-10T04:42:38.366Z,18.21
2022-09-10T04:43:36.619Z,18.14
2022-09-10T04:44:33.892Z,17.87
2022-09-10T04:45:31.099Z,17.67
2022-09-10T04:46:27.758Z,17.52
2022-09-10T04:47:24.366Z,17.43
2022-09-10T04:48:24.586Z,17.52
2022-09-10T04:49:21.163Z,17.51
2022-09-10T04:50:17.714Z,17.34
2022-09-10T04:51:16.977Z,17.15
2022-09-10T04:52:14.810Z,17.08
2022-09-10T04:53:11.391Z,16.99
2022-09-10T04:54:07.973Z,17.07
2022-09-10T04:55:04.887Z,17.15
2022-09-10T04:56:01.751Z,17.25
2022-09-10T04:56:58.301Z,16.98
2022-09-10T04:57:54.916Z,16.86
2022-09-10T04:58:51.857Z,16.75
2022-09-10T04:59:48.412Z,16.67
2022-09-10T05:00:45.091Z,16.70
2022-09-10T05:01:42.188Z,16.72
2022-09-10T05:02:39.058Z,16.73
2022-09-10T05:03:36.122Z,16.68
2022-09-10T05:04:33.287Z,16.65
2022-09-10T05:05:30.743Z,16.60
2022-09-10T05:06:27.327Z,16.65
2022-09-10T05:07:23.935Z,16.49
2022-09-10T05:08:20.542Z,16.62
2022-09-10T05:09:17.682Z,16.58
2022-09-10T05:10:15.378Z,16.66
2022-09-10T05:11:13.186Z,16.79
2022-09-10T05:12:10.561Z,16.80
2022-09-10T05:13:07.998Z,16.53
2022-09-10T05:14:04.823Z,16.66
2022-09-10T05:15:03.278Z,16.81
2022-09-10T05:16:00.164Z,16.70
2022-09-10T05:16:57.067Z,16.81
2022-09-10T05:17:53.940Z,16.86
2022-09-10T05:18:50.633Z,16.88
2022-09-10T05:19:47.237Z,16.94
2022-09-10T05:20:47.186Z,17.06
2022-09-10T05:21:44.777Z,17.18
2022-09-10T05:22:42.832Z,17.17
2022-09-10T05:23:39.552Z,17.23
2022-09-10T05:24:36.167Z,17.32
2022-09-10T05:25:34.615Z,17.42
2022-09-10T05:26:31.169Z,17.37
2022-09-10T05:27:27.726Z,17.32
2022-09-10T05:28:24.763Z,17.46
2022-09-10T05:29:22.095Z,17.51
2022-09-10T05:30:18.991Z,17.53
2022-09-10T05:31:16.606Z,17.60
2022-09-10T05:32:13.439Z,17.62
2022-09-10T05:33:10.049Z,17.68
2022-09-10T05:34:06.706Z,17.74
2022-09-10T05:35:05.513Z,17.66
2022-09-10T05:36:02.704Z,17.57
2022-09-10T05:36:59.269Z,17.51
2022-09-10T05:37:57.390Z,17.45
2022-09-10T05:38:55.156Z,17.59
2022-09-10T05:39:51.780Z,17.72
2022-09-10T05:40:48.662Z,17.74
2022-09-10T05:41:45.261Z,17.97
2022-09-10T05:42:42.229Z,17.85
2022-09-10T05:43:39.023Z,17.75
2022-09-10T05:44:35.717Z,17.88
2022-09-10T05:45:33.534Z,17.85
2022-09-10T05:46:30.971Z,17.96
2022-09-10T05:47:28.282Z,17.64
2022-09-10T05:48:24.844Z,17.77
2022-09-10T05:49:21.456Z,17.70
2022-09-10T05:50:18.132Z,17.61
2022-09-10T05:51:14.831Z,17.61
2022-09-10T05:52:11.440Z,17.46
2022-09-10T05:53:09.617Z,17.48
2022-09-10T05:54:06.315Z,17.45
2022-09-10T05:55:03.829Z,17.54
2022-09-10T05:56:00.854Z,17.72
2022-09-10T05:56:58.722Z,17.87
2022-09-10T05:57:56.666Z,17.89
2022-09-10T05:58:53.609Z,17.86
2022-09-10T05:59:50.463Z,17.88
2022-09-10T06:00:53.588Z,18.04
2022-09-10T06:01:52.140Z,18.43
2022-09-10T06:02:48.902Z,18.53
2022-09-10T06:03:45.684Z,18.76
2022-09-10T06:04:42.279Z,18.63
2022-09-10T06:05:38.888Z,19.08
2022-09-10T06:06:35.483Z,19.22
2022-09-10T06:07:32.134Z,19.07
2022-09-10T06:08:28.932Z,19.05
2022-09-10T06:09:25.608Z,18.91
2022-09-10T06:10:22.257Z,18.96
2022-09-10T06:11:18.933Z,19.02
2022-09-10T06:12:17.237Z,19.30
2022-09-10T06:13:14.015Z,19.45
2022-09-10T06:14:10.635Z,19.70
2022-09-10T06:15:07.609Z,19.79
2022-09-10T06:16:05.209Z,19.84
2022-09-10T06:17:01.984Z,19.81
2022-09-10T06:17:58.685Z,19.89
2022-09-10T06:18:55.360Z,20.01
2022-09-10T06:19:51.967Z,20.05
2022-09-10T06:20:49.120Z,20.05
2022-09-10T06:21:46.909Z,19.97
2022-09-10T06:22:43.507Z,20.11
2022-09-10T06:23:40.349Z,20.32
2022-09-10T06:24:37.757Z,20.27
2022-09-10T06:25:34.428Z,20.10
2022-09-10T06:26:31.078Z,20.01
2022-09-10T06:27:27.655Z,20.14
2022-09-10T06:28:24.840Z,20.41
2022-09-10T06:29:22.650Z,20.55
2022-09-10T06:30:20.773Z,20.65
2022-09-10T06:31:18.108Z,20.85
2022-09-10T06:32:14.985Z,20.98
2022-09-10T06:33:13.791Z,20.91
2022-09-10T06:34:11.528Z,20.81
2022-09-10T06:35:09.849Z,20.78
2022-09-10T06:36:06.534Z,20.81
2022-09-10T06:37:04.214Z,20.61
2022-09-10T06:38:01.046Z,20.71
2022-09-10T06:38:58.067Z,20.88
2022-09-10T06:39:54.720Z,20.93
2022-09-10T06:40:56.038Z,21.20
2022-09-10T06:41:53.698Z,21.34
2022-09-10T06:42:50.740Z,21.37
2022-09-10T06:43:47.391Z,21.45
2022-09-10T06:44:44.340Z,21.47
2022-09-10T06:45:41.033Z,21.39
2022-09-10T06:49:11.849Z,21.41
2022-09-10T06:50:09.033Z,21.22
2022-09-10T06:51:08.194Z,21.10
2022-09-10T06:52:04.896Z,21.07
2022-09-10T06:53:01.965Z,21.01
2022-09-10T06:53:58.619Z,20.86
2022-09-10T06:54:55.435Z,20.69
2022-09-10T06:55:53.197Z,20.68
2022-09-10T06:56:49.885Z,20.76
2022-09-10T06:57:47.116Z,20.89
2022-09-10T06:58:43.767Z,20.79
2022-09-10T06:59:41.352Z,20.85
2022-09-10T07:00:39.348Z,20.91
2022-09-10T07:01:36.235Z,21.08
2022-09-10T07:02:32.850Z,21.11
2022-09-10T07:03:29.670Z,20.81
2022-09-10T07:04:26.315Z,20.88
2022-09-10T07:05:22.895Z,20.87
2022-09-10T07:06:19.528Z,20.77
2022-09-10T07:07:16.137Z,20.69
2022-09-10T07:08:15.952Z,20.79
2022-09-10T07:09:12.559Z,20.56
2022-09-10T07:10:09.542Z,20.57
2022-09-10T07:11:11.375Z,20.51
2022-09-10T07:12:09.478Z,20.48
2022-09-10T07:13:06.925Z,20.53
2022-09-10T07:14:03.772Z,20.62
2022-09-10T07:15:00.388Z,20.67
2022-09-10T07:15:57.648Z,21.02
2022-09-10T07:16:55.633Z,21.04
2022-09-10T07:17:52.276Z,20.98
2022-09-10T07:18:54.669Z,21.06
2022-09-10T07:19:51.127Z,21.13
2022-09-10T07:20:47.749Z,20.91
2022-09-10T07:21:44.901Z,20.97
2022-09-10T07:22:43.844Z,20.84
2022-09-10T07:23:41.047Z,20.96
2022-09-10T07:24:37.887Z,20.85
2022-09-10T07:25:34.464Z,20.88
2022-09-10T07:26:31.411Z,20.68
2022-09-10T07:27:27.977Z,20.99
2022-09-10T07:28:24.557Z,21.07
2022-09-10T07:29:21.127Z,21.07
2022-09-10T07:30:18.897Z,21.18
2022-09-10T07:31:29.806Z,21.06
2022-09-10T07:32:26.374Z,20.82
2022-09-10T07:33:23.018Z,21.23
2022-09-10T07:34:20.318Z,21.43
2022-09-10T07:35:17.186Z,21.55
2022-09-10T07:36:14.975Z,21.39
2022-09-10T07:37:12.038Z,21.44
2022-09-10T07:38:14.153Z,21.72
2022-09-10T07:39:10.903Z,21.89
2022-09-10T07:40:10.759Z,21.65
2022-09-10T07:41:11.289Z,21.68
2022-09-10T07:42:07.977Z,21.65
2022-09-10T07:43:04.658Z,21.75
2022-09-10T07:44:01.289Z,21.58
2022-09-10T07:44:58.164Z,21.78
2022-09-10T07:45:54.842Z,21.78
2022-09-10T07:46:52.890Z,22.00
2022-09-10T07:47:49.979Z,22.18
2022-09-10T07:48:54.472Z,22.29
2022-09-10T07:49:52.696Z,22.43
2022-09-10T07:50:49.397Z,22.41
2022-09-10T07:51:46.020Z,22.69
2022-09-10T07:52:42.837Z,22.58
2022-09-10T07:53:47.515Z,22.52
2022-09-10T07:54:47.013Z,22.48
2022-09-10T07:55:43.620Z,22.54
2022-09-10T07:56:40.177Z,22.42
2022-09-10T07:57:40.652Z,22.74
2022-09-10T07:58:38.416Z,22.88
2022-09-10T07:59:35.057Z,22.80
2022-09-10T08:00:31.901Z,22.90
2022-09-10T08:01:28.533Z,22.95
2022-09-10T08:02:25.856Z,22.91
2022-09-10T08:03:22.594Z,23.15
2022-09-10T08:04:19.184Z,22.90
2022-09-10T08:05:16.950Z,22.93
2022-09-10T08:06:14.569Z,23.04
2022-09-10T08:07:11.152Z,22.93
2022-09-10T08:08:07.776Z,22.87
2022-09-10T08:09:07.623Z,22.82
2022-09-10T08:10:09.732Z,22.76
2022-09-10T08:11:17.830Z,22.78
2022-09-10T08:12:14.889Z,22.87
2022-09-10T08:13:12.728Z,23.05
2022-09-10T08:14:09.579Z,23.19
2022-09-10T08:15:07.796Z,23.24
2022-09-10T08:16:12.517Z,23.13
2022-09-10T08:17:09.190Z,23.13
2022-09-10T08:18:05.865Z,23.02
2022-09-10T08:19:02.730Z,23.13
2022-09-10T08:19:59.419Z,23.07
2022-09-10T08:20:56.042Z,23.10
2022-09-10T08:21:52.718Z,23.09
2022-09-10T08:22:49.653Z,23.27
2022-09-10T08:23:56.288Z,22.94
2022-09-10T08:24:53.355Z,23.24
2022-09-10T08:25:53.653Z,23.18
2022-09-10T08:26:50.360Z,23.42
2022-09-10T08:27:47.116Z,23.34
2022-09-10T08:28:44.298Z,23.55
2022-09-10T08:29:40.892Z,23.74
2022-09-10T08:30:37.430Z,23.90
2022-09-10T08:31:34.723Z,23.92
2022-09-10T08:32:31.337Z,24.33
2022-09-10T08:33:29.579Z,24.38
2022-09-10T08:34:26.422Z,24.53
2022-09-10T08:35:23.030Z,24.61
2022-09-10T08:36:21.895Z,24.53
2022-09-10T08:37:19.123Z,24.54
2022-09-10T08:38:16.299Z,24.46
2022-09-10T08:39:13.350Z,24.40
2022-09-10T08:40:13.355Z,24.64
2022-09-10T08:41:21.921Z,24.38
2022-09-10T08:42:24.668Z,24.39
2022-09-10T08:43:29.226Z,23.94
2022-09-10T08:44:31.279Z,24.02
2022-09-10T08:45:32.775Z,24.25
2022-09-10T08:46:35.759Z,24.51
2022-09-10T08:47:46.585Z,24.85
2022-09-10T08:48:46.322Z,25.18
2022-09-10T08:49:51.094Z,25.25
2022-09-10T08:50:56.632Z,25.32
2022-09-10T08:52:00.838Z,25.32
2022-09-10T08:53:05.449Z,25.21
2022-09-10T08:54:10.250Z,25.24
2022-09-10T08:55:13.323Z,25.51
2022-09-10T08:56:15.348Z,25.38
2022-09-10T08:57:28.134Z,24.90
2022-09-10T08:58:30.910Z,25.29
2022-09-10T08:59:33.558Z,25.20
2022-09-10T09:00:37.822Z,25.47
2022-09-10T09:01:48.201Z,24.92
2022-09-10T09:03:20.341Z,25.28
2022-09-10T09:04:29.784Z,25.61
2022-09-10T09:05:28.199Z,25.40
2022-09-10T09:06:37.653Z,25.10
2022-09-10T09:07:40.332Z,25.54
2022-09-10T09:08:48.242Z,25.48
2022-09-10T09:09:45.567Z,25.36
2022-09-10T09:10:46.887Z,24.82
2022-09-10T09:11:57.560Z,25.00
2022-09-10T09:13:22.383Z,24.90
2022-09-10T09:14:28.496Z,24.81
2022-09-10T09:15:41.700Z,24.56
2022-09-10T09:16:50.273Z,24.87
2022-09-10T09:18:28.153Z,25.04
2022-09-10T09:19:45.424Z,25.31
2022-09-10T09:20:50.005Z,25.23
2022-09-10T09:22:01.564Z,25.45
2022-09-10T09:23:17.473Z,25.45
2022-09-10T09:24:46.123Z,25.53
2022-09-10T09:25:51.646Z,24.91
2022-09-10T09:26:49.792Z,24.87
2022-09-10T09:27:47.630Z,24.80
2022-09-10T09:28:54.731Z,25.21
2022-09-10T09:30:02.562Z,25.30
2022-09-10T09:31:09.325Z,25.71
2022-09-10T09:32:07.184Z,26.14
2022-09-10T09:33:13.649Z,26.72
2022-09-10T09:34:19.515Z,26.53
2022-09-10T09:35:29.062Z,26.09
2022-09-10T09:36:34.384Z,25.70
2022-09-10T09:37:31.341Z,26.21
2022-09-10T09:38:31.496Z,26.64
2022-09-10T09:39:36.443Z,26.46
2022-09-10T09:41:06.692Z,26.88
2022-09-10T09:42:24.705Z,26.98
2022-09-10T09:43:49.806Z,27.65
2022-09-10T09:44:59.254Z,27.11
2022-09-10T09:45:55.982Z,26.47
2022-09-10T09:46:52.630Z,26.49
2022-09-10T09:47:54.368Z,26.96
2022-09-10T09:48:55.789Z,27.22
2022-09-10T09:49:54.016Z,27.02
2022-09-10T09:50:55.725Z,27.28
2022-09-10T09:51:53.364Z,27.11
2022-09-10T09:52:54.939Z,27.06
2022-09-10T09:54:25.849Z,27.07
2022-09-10T09:55:41.474Z,26.59
2022-09-10T09:56:42.974Z,26.60
2022-09-10T09:57:40.159Z,26.95
2022-09-10T09:59:35.208Z,27.09
2022-09-10T10:00:37.842Z,27.23
2022-09-10T10:01:42.087Z,27.62
2022-09-10T10:02:38.780Z,27.54
2022-09-10T10:03:48.402Z,27.78
2022-09-10T10:05:09.670Z,27.44
2022-09-10T10:06:11.477Z,27.48
2022-09-10T10:07:08.171Z,27.98
2022-09-10T10:08:04.772Z,27.46
2022-09-10T10:09:06.974Z,27.10
2022-09-10T10:10:07.982Z,27.95
2022-09-10T10:11:05.055Z,28.31
2022-09-10T10:12:06.381Z,28.54
2022-09-10T10:13:03.622Z,28.41
2022-09-10T10:14:12.633Z,28.72
2022-09-10T10:15:35.536Z,28.42
2022-09-10T10:16:35.912Z,28.15
2022-09-10T10:17:41.291Z,27.79
2022-09-10T10:18:37.984Z,27.78
2022-09-10T10:19:40.317Z,27.20
2022-09-10T10:20:39.000Z,26.99
2022-09-10T10:21:36.909Z,27.07
2022-09-10T10:22:33.708Z,27.66
2022-09-10T10:23:38.190Z,27.48
2022-09-10T10:24:35.055Z,27.99
2022-09-10T10:25:38.533Z,27.92
2022-09-10T10:26:36.295Z,27.59
2022-09-10T10:27:36.806Z,27.49
2022-09-10T10:28:36.197Z,27.20
2022-09-10T10:29:32.895Z,27.23
2022-09-10T10:30:32.171Z,27.79
2022-09-10T10:31:41.807Z,27.38
2022-09-10T10:32:46.550Z,27.15
2022-09-10T10:34:15.358Z,27.18
2022-09-10T10:35:19.485Z,27.38
2022-09-10T10:36:25.519Z,27.43
2022-09-10T10:37:50.571Z,28.02
2022-09-10T10:39:02.995Z,27.80
2022-09-10T10:40:30.474Z,28.28
2022-09-10T10:41:39.824Z,28.45
2022-09-10T10:42:46.826Z,27.77
2022-09-10T10:43:58.206Z,27.04
2022-09-10T10:45:16.560Z,26.96
2022-09-10T10:46:20.287Z,26.66
2022-09-10T10:47:39.680Z,26.75
2022-09-10T10:48:51.260Z,26.80
2022-09-10T10:50:03.608Z,26.80
2022-09-10T10:51:18.221Z,26.61
2022-09-10T10:52:34.551Z,26.15
2022-09-10T10:53:56.767Z,26.33
2022-09-10T10:55:17.402Z,26.30
2022-09-10T10:56:29.870Z,26.15
2022-09-10T10:57:48.025Z,26.05
2022-09-10T10:58:54.518Z,25.78
2022-09-10T11:00:01.216Z,25.42
2022-09-10T11:01:18.125Z,24.82
2022-09-10T11:02:33.504Z,24.25
2022-09-10T11:03:40.145Z,24.04
2022-09-10T11:04:54.810Z,23.89
2022-09-10T11:06:08.500Z,23.74
2022-09-10T11:07:14.145Z,23.53
2022-09-10T11:08:19.509Z,23.59
2022-09-10T11:09:43.280Z,23.09
2022-09-10T11:10:43.476Z,22.87
2022-09-10T11:12:01.263Z,22.83
2022-09-10T11:13:13.691Z,22.81
2022-09-10T11:14:39.112Z,21.05
2022-09-10T11:15:44.155Z,20.67
2022-09-10T11:16:57.958Z,20.97
2022-09-10T11:18:13.090Z,20.05
2022-09-10T11:19:19.757Z,20.08
2022-09-10T11:20:34.414Z,19.37
2022-09-10T11:22:01.740Z,18.80
2022-09-10T11:23:07.314Z,18.84
2022-09-10T11:24:18.914Z,18.56
2022-09-10T11:25:22.115Z,18.55
2022-09-10T11:26:24.843Z,18.75
2022-09-10T11:27:31.384Z,18.75
2022-09-10T11:28:37.628Z,18.81
2022-09-10T11:29:42.528Z,18.80
2022-09-10T11:30:45.306Z,18.65
2022-09-10T11:32:06.445Z,18.59
2022-09-10T11:33:17.226Z,18.82
2022-09-10T11:34:19.840Z,18.85
2022-09-10T11:35:29.325Z,18.95
2022-09-10T11:36:38.840Z,19.45
2022-09-10T11:38:14.286Z,19.23
2022-09-10T11:39:29.240Z,19.60
2022-09-10T11:40:43.667Z,19.56
2022-09-10T11:41:42.666Z,19.33
2022-09-10T11:42:46.796Z,19.32
2022-09-10T11:44:02.168Z,19.38
2022-09-10T11:45:20.531Z,19.16
2022-09-10T11:46:24.050Z,19.49
2022-09-10T11:47:45.970Z,19.73
2022-09-10T11:48:49.512Z,19.72
2022-09-10T11:50:01.007Z,19.97
2022-09-10T11:51:02.333Z,20.03
2022-09-10T11:51:58.952Z,20.07
2022-09-10T11:52:59.163Z,20.38
2022-09-10T11:53:56.564Z,20.29
2022-09-10T11:54:54.142Z,20.66
2022-09-10T11:56:08.995Z,20.78
2022-09-10T11:57:31.214Z,20.69
2022-09-10T11:58:49.489Z,20.85
2022-09-10T11:59:58.318Z,21.10
2022-09-10T12:01:32.643Z,21.39
2022-09-10T12:02:29.177Z,21.60
2022-09-10T12:04:01.450Z,21.73
2022-09-10T12:05:30.008Z,22.18
2022-09-10T12:06:43.156Z,22.34
2022-09-10T12:08:11.115Z,22.33
2022-09-10T12:09:16.836Z,22.52
2022-09-10T12:10:32.929Z,22.64
2022-09-10T12:12:04.544Z,22.55
2022-09-10T12:13:01.562Z,22.86
2022-09-10T12:13:58.937Z,22.96
2022-09-10T12:14:56.149Z,22.81
2022-09-10T12:15:56.824Z,23.12
2022-09-10T12:17:07.100Z,23.15
2022-09-10T12:18:18.927Z,23.25
2022-09-10T12:19:30.716Z,23.35
2022-09-10T12:20:37.479Z,23.37
2022-09-10T12:21:44.118Z,23.53
2022-09-10T12:22:42.118Z,23.73
2022-09-10T12:23:42.709Z,23.68
2022-09-10T12:24:39.883Z,23.76
2022-09-10T12:25:36.581Z,23.85
2022-09-10T12:26:44.892Z,24.05
2022-09-10T12:28:27.809Z,23.90
2022-09-10T12:29:40.221Z,24.04
2022-09-10T12:30:36.763Z,24.12
2022-09-10T12:32:08.571Z,24.19
2022-09-10T12:33:17.445Z,24.05
2022-09-10T12:34:19.640Z,23.93
2022-09-10T12:35:31.487Z,24.18
2022-09-10T12:36:28.157Z,24.23
2022-09-10T12:37:28.207Z,24.12
2022-09-10T12:38:55.597Z,23.94
2022-09-10T12:40:25.199Z,23.96
2022-09-10T12:41:24.514Z,23.95
2022-09-10T12:42:34.641Z,24.02
2022-09-10T12:43:40.350Z,24.50
2022-09-10T12:44:37.726Z,24.69
2022-09-10T12:46:02.978Z,24.95
2022-09-10T12:47:18.040Z,25.30
2022-09-10T12:48:16.742Z,25.47
2022-09-10T12:49:14.110Z,25.78
2022-09-10T12:50:22.048Z,25.50
2022-09-10T12:51:18.636Z,25.75
2022-09-10T12:52:42.798Z,25.67
2022-09-10T12:53:45.401Z,25.84
2022-09-10T12:55:03.074Z,25.91
2022-09-10T12:56:04.168Z,26.04
2022-09-10T12:57:35.842Z,25.93
2022-09-10T12:58:59.869Z,25.78
2022-09-10T13:00:12.626Z,25.46
2022-09-10T13:01:24.647Z,25.43
2022-09-10T13:02:33.990Z,25.56
2022-09-10T13:03:31.444Z,25.55
2022-09-10T13:04:37.308Z,25.47
2022-09-10T13:05:46.748Z,25.29
2022-09-10T13:06:44.260Z,25.24
2022-09-10T13:07:43.936Z,25.14
2022-09-10T13:08:43.762Z,25.39
2022-09-10T13:09:40.601Z,25.56
2022-09-10T13:10:38.923Z,25.68
2022-09-10T13:11:36.705Z,25.68
2022-09-10T13:12:36.543Z,26.23
2022-09-10T13:13:36.172Z,25.92
2022-09-10T13:14:47.536Z,26.09
2022-09-10T13:15:51.098Z,26.26
2022-09-10T13:16:47.954Z,26.12
2022-09-10T13:17:47.164Z,26.15
2022-09-10T13:18:46.603Z,26.11
2022-09-10T13:19:43.126Z,26.19
2022-09-10T13:20:40.345Z,26.15